Time;durP1;ratioP1;P1;durP2;ratioP2;P2;SDS_P1;SDS_P2;PMS_P1;PMS_P2;Temp;Humidity;BMP_temperature;BMP_pressure;BME280_temperature;BME280_humidity;BME280_pressure;Samples;Min_cycle;Max_cycle;Signal;HPM_P1;HPM_P2
2021/03/15 00:00:44;;;;;;;2.92;1.95;;;-5.90;70.20;;;;;;4375429;32;20500;-60
2021/03/15 00:03:11;;;;;;;3.50;2.12;;;-5.90;70.10;;;;;;4375075;32;20160;-60
2021/03/15 00:05:37;;;;;;;3.72;1.90;;;-5.80;69.80;;;;;;4363519;32;20105;-60
2021/03/15 00:08:04;;;;;;;4.82;2.17;;;-5.80;69.10;;;;;;4375605;32;20605;-59
2021/03/15 00:10:30;;;;;;;4.05;2.05;;;-5.80;69.10;;;;;;4350699;32;20101;-60
2021/03/15 00:12:57;;;;;;;4.32;2.50;;;-5.80;70.50;;;;;;4350489;32;20071;-60
2021/03/15 00:15:24;;;;;;;3.55;1.90;;;-5.80;69.30;;;;;;4350924;32;20105;-59
2021/03/15 00:17:51;;;;;;;5.10;1.90;;;-5.80;69.30;;;;;;4349818;32;20069;-59
2021/03/15 00:20:18;;;;;;;3.35;2.30;;;-5.80;69.00;;;;;;4350718;32;20061;-60
2021/03/15 00:22:45;;;;;;;2.92;2.10;;;-5.80;68.90;;;;;;4350242;32;20070;-59
2021/03/15 00:25:11;;;;;;;5.18;2.60;;;-5.80;68.90;;;;;;4350572;32;20153;-59
2021/03/15 00:27:39;;;;;;;4.00;1.95;;;-5.80;69.00;;;;;;4370797;32;20165;-60
2021/03/15 00:30:07;;;;;;;3.08;2.15;;;-5.80;68.90;;;;;;4377818;32;20526;-59
2021/03/15 00:32:34;;;;;;;4.15;2.33;;;-5.80;69.00;;;;;;4374263;32;20114;-60
2021/03/15 00:35:00;;;;;;;3.30;2.10;;;-5.80;68.90;;;;;;4338785;32;20138;-60
2021/03/15 00:37:27;;;;;;;2.75;1.83;;;-5.90;69.30;;;;;;4375023;32;20062;-59
2021/03/15 00:39:54;;;;;;;2.90;2.00;;;-5.90;69.30;;;;;;4362505;32;20488;-60
2021/03/15 00:42:20;;;;;;;3.40;1.80;;;-5.90;69.10;;;;;;4374711;32;20429;-60
2021/03/15 00:44:46;;;;;;;3.58;2.00;;;-5.90;69.20;;;;;;4375983;32;20080;-59
2021/03/15 00:47:12;;;;;;;3.33;2.05;;;-6.00;69.10;;;;;;4361782;32;20070;-63
2021/03/15 00:49:38;;;;;;;3.47;2.10;;;-6.00;69.30;;;;;;4362838;32;20076;-59
2021/03/15 00:52:05;;;;;;;2.37;1.67;;;-6.00;69.40;;;;;;4371180;32;20089;-59
2021/03/15 00:54:32;;;;;;;5.05;2.10;;;-6.00;69.30;;;;;;4366600;32;20070;-60
2021/03/15 00:56:58;;;;;;;4.85;2.00;;;-6.00;69.30;;;;;;4382591;32;20085;-59
2021/03/15 00:59:24;;;;;;;3.03;2.00;;;-6.00;69.20;;;;;;4364578;32;20089;-62
2021/03/15 01:01:50;;;;;;;3.97;2.22;;;-6.00;68.90;;;;;;4362400;32;20106;-60
2021/03/15 01:04:17;;;;;;;4.25;2.33;;;-6.00;69.10;;;;;;4362621;32;20070;-60
2021/03/15 01:06:44;;;;;;;2.92;2.00;;;-6.00;68.90;;;;;;4377539;32;20089;-61
2021/03/15 01:09:10;;;;;;;5.55;2.22;;;-6.00;68.90;;;;;;4377635;32;20104;-59
2021/03/15 01:11:40;;;;;;;3.72;2.30;;;-5.90;68.70;;;;;;4352469;32;20174;-60
2021/03/15 01:14:07;;;;;;;4.07;2.15;;;-5.90;68.80;;;;;;4364705;32;20062;-61
2021/03/15 01:16:34;;;;;;;4.20;2.05;;;-5.90;68.60;;;;;;4365195;32;20085;-59
2021/03/15 01:19:00;;;;;;;4.45;1.98;;;-5.80;68.50;;;;;;4351902;32;20070;-60
2021/03/15 01:21:27;;;;;;;3.80;2.20;;;-5.80;68.20;;;;;;4364738;32;20081;-60
2021/03/15 01:23:53;;;;;;;4.43;2.22;;;-5.80;68.20;;;;;;4376924;32;20142;-60
2021/03/15 01:26:19;;;;;;;4.62;2.37;;;-5.80;68.50;;;;;;4389521;32;20069;-59
2021/03/15 01:28:46;;;;;;;3.12;2.17;;;-5.90;68.40;;;;;;4374512;32;20077;-59
2021/03/15 01:31:12;;;;;;;3.87;2.40;;;-5.80;68.90;;;;;;4374360;32;20138;-60
2021/03/15 01:33:40;;;;;;;4.43;2.45;;;-5.90;68.90;;;;;;4361681;32;20509;-60
2021/03/15 01:36:07;;;;;;;4.07;2.30;;;-5.90;69.20;;;;;;4361855;32;20066;-60
2021/03/15 01:38:33;;;;;;;3.10;2.28;;;-5.90;69.30;;;;;;4362116;32;20070;-60
2021/03/15 01:40:59;;;;;;;5.53;2.50;;;-5.80;69.60;;;;;;4362156;32;20455;-59
2021/03/15 01:43:25;;;;;;;4.22;2.35;;;-5.90;70.20;;;;;;4374834;32;20521;-59
2021/03/15 01:45:51;;;;;;;4.03;2.60;;;-5.90;70.30;;;;;;4363735;32;20066;-60
2021/03/15 01:48:18;;;;;;;3.40;2.40;;;-5.90;70.60;;;;;;4339380;32;20521;-60
2021/03/15 01:51:13;;;;;;;4.77;2.23;;;-5.80;70.60;;;;;;3851703;37;20062;-60
2021/03/15 01:53:41;;;;;;;6.43;2.80;;;-5.90;70.80;;;;;;4365412;32;20084;-60
2021/03/15 01:56:07;;;;;;;3.60;2.30;;;-5.90;71.00;;;;;;4365804;32;20154;-60
2021/03/15 01:58:34;;;;;;;5.18;2.70;;;-5.80;71.00;;;;;;4353240;32;20069;-60
2021/03/15 02:01:00;;;;;;;4.80;2.30;;;-5.90;70.90;;;;;;4365641;32;20069;-59
2021/03/15 02:03:26;;;;;;;4.20;2.00;;;-5.90;71.20;;;;;;4370708;32;20077;-59
2021/03/15 02:05:52;;;;;;;4.35;3.17;;;-5.90;71.20;;;;;;4353404;32;20062;-60
2021/03/15 02:08:18;;;;;;;4.80;2.80;;;-5.90;71.20;;;;;;4377639;32;20177;-59
2021/03/15 02:10:45;;;;;;;3.35;2.15;;;-5.90;70.90;;;;;;4365554;32;20073;-60
2021/03/15 02:13:25;;;;;;;3.80;2.45;;;-5.90;71.00;;;;;;4377896;32;20153;-60
2021/03/15 02:16:36;;;;;;;3.87;2.55;;;-5.90;71.00;;;;;;4378246;32;20094;-59
2021/03/15 02:19:41;;;;;;;3.92;2.40;;;-5.90;71.00;;;;;;4386836;32;20093;-58
2021/03/15 02:22:21;;;;;;;4.72;3.08;;;-5.90;70.90;;;;;;4371610;32;20244;-60
2021/03/15 02:25:14;;;;;;;4.40;2.95;;;-5.90;70.80;;;;;;4348272;32;20532;-60
2021/03/15 02:28:12;;;;;;;6.20;2.95;;;-5.90;70.80;;;;;;4382431;32;20066;-60
2021/03/15 02:30:49;;;;;;;4.60;2.80;;;-5.90;70.90;;;;;;4365150;32;20077;-59
2021/03/15 02:33:59;;;;;;;4.00;2.45;;;-5.80;70.30;;;;;;4384629;32;20080;-61
2021/03/15 02:36:29;;;;;;;4.43;3.00;;;-5.80;70.20;;;;;;4419306;32;20066;-59
2021/03/15 02:38:55;;;;;;;4.40;2.67;;;-5.70;70.00;;;;;;4379144;32;20070;-59
2021/03/15 02:41:21;;;;;;;4.50;2.83;;;-5.70;69.70;;;;;;4364871;32;20141;-59
2021/03/15 02:43:51;;;;;;;7.18;3.03;;;-5.60;69.40;;;;;;4364608;32;20085;-60
2021/03/15 02:46:20;;;;;;;5.68;3.30;;;-5.60;69.20;;;;;;4352521;32;20062;-59
2021/03/15 02:48:50;;;;;;;7.40;2.85;;;-5.60;69.10;;;;;;4379187;32;20162;-59
2021/03/15 02:51:19;;;;;;;5.28;2.90;;;-5.60;68.70;;;;;;4376319;32;20070;-60
2021/03/15 02:53:45;;;;;;;6.10;2.90;;;-5.60;68.60;;;;;;4350312;32;20077;-59
2021/03/15 02:56:20;;;;;;;3.95;2.67;;;-5.50;68.50;;;;;;4362241;32;20078;-60
2021/03/15 02:58:47;;;;;;;4.78;3.17;;;-5.60;68.50;;;;;;4357250;32;20058;-59
2021/03/15 03:01:21;;;;;;;4.28;2.80;;;-5.50;68.50;;;;;;4372894;32;20081;-59
2021/03/15 03:03:48;;;;;;;5.20;3.17;;;-5.60;68.20;;;;;;4357306;32;20058;-60
2021/03/15 03:06:15;;;;;;;5.07;2.83;;;-5.50;68.30;;;;;;4339875;32;20078;-60
2021/03/15 03:08:41;;;;;;;5.00;3.28;;;-5.50;68.10;;;;;;4339732;32;20505;-60
2021/03/15 03:11:07;;;;;;;5.25;3.00;;;-5.50;67.70;;;;;;4352091;32;20494;-60
2021/03/15 03:13:33;;;;;;;6.25;3.17;;;-5.60;67.70;;;;;;4352775;32;20069;-60
2021/03/15 03:16:00;;;;;;;6.68;3.03;;;-5.60;67.50;;;;;;4365536;32;20066;-60
2021/03/15 03:18:26;;;;;;;5.40;3.03;;;-5.50;67.40;;;;;;4362994;32;20070;-60
2021/03/15 03:20:54;;;;;;;4.25;3.15;;;-5.50;67.40;;;;;;4342982;32;20167;-59
2021/03/15 03:23:22;;;;;;;4.12;2.83;;;-5.50;67.40;;;;;;4341425;32;20485;-60
2021/03/15 03:25:48;;;;;;;5.60;3.53;;;-5.50;67.30;;;;;;4367049;32;20059;-60
2021/03/15 03:28:15;;;;;;;4.50;2.70;;;-5.50;67.20;;;;;;4367695;32;20074;-60
2021/03/15 03:30:42;;;;;;;4.95;3.37;;;-5.60;67.10;;;;;;4364426;32;20515;-59
2021/03/15 03:33:09;;;;;;;6.28;2.85;;;-5.60;68.50;;;;;;4364081;32;20077;-58
2021/03/15 03:35:35;;;;;;;4.97;2.53;;;-5.50;67.40;;;;;;4351784;32;20070;-59
2021/03/15 03:38:02;;;;;;;5.15;2.50;;;-5.50;67.40;;;;;;4351300;32;20069;-59
2021/03/15 03:40:29;;;;;;;5.75;2.83;;;-5.50;67.00;;;;;;4339431;32;20083;-59
2021/03/15 03:42:55;;;;;;;4.50;3.12;;;-5.50;66.90;;;;;;4340090;32;20071;-60
2021/03/15 03:45:22;;;;;;;4.90;2.50;;;-5.40;67.10;;;;;;4327322;32;20074;-60
2021/03/15 03:47:48;;;;;;;4.30;2.87;;;-5.40;67.00;;;;;;4351130;32;20082;-59
2021/03/15 03:50:26;;;;;;;4.75;2.75;;;-5.50;67.20;;;;;;4360861;32;20055;-59
2021/03/15 03:53:09;;;;;;;6.28;3.25;;;-5.40;67.40;;;;;;4376345;32;20154;-59
2021/03/15 03:55:44;;;;;;;4.35;2.72;;;-5.50;67.50;;;;;;4367688;32;20062;-60
2021/03/15 03:58:10;;;;;;;4.25;2.78;;;-5.40;67.40;;;;;;4355832;32;20070;-59
2021/03/15 04:00:37;;;;;;;4.28;2.60;;;-5.50;67.70;;;;;;4368196;32;20076;-59
2021/03/15 04:03:17;;;;;;;4.75;2.60;;;-5.50;67.70;;;;;;4370765;32;20117;-60
2021/03/15 04:05:52;;;;;;;5.35;2.70;;;-5.50;67.70;;;;;;4361219;32;20180;-60
2021/03/15 04:09:10;;;;;;;4.72;2.87;;;-5.50;67.80;;;;;;4361286;32;20529;-59
2021/03/15 04:11:36;;;;;;;5.55;3.00;;;-5.50;67.70;;;;;;4359501;32;20070;-60
2021/03/15 04:14:03;;;;;;;4.87;2.80;;;-5.50;67.60;;;;;;4360340;32;20090;-59
2021/03/15 04:16:35;;;;;;;4.12;2.60;;;-5.60;67.60;;;;;;4361375;32;20069;-60
2021/03/15 04:19:04;;;;;;;5.70;3.00;;;-5.60;67.80;;;;;;4369325;32;20525;-59
2021/03/15 04:21:31;;;;;;;4.00;2.62;;;-5.60;67.80;;;;;;4348694;32;20066;-61
2021/03/15 04:23:57;;;;;;;4.50;3.08;;;-5.60;68.00;;;;;;4360660;32;20551;-60
2021/03/15 04:26:24;;;;;;;4.87;2.97;;;-5.60;67.90;;;;;;4336859;32;20089;-59
2021/03/15 04:28:51;;;;;;;5.32;2.80;;;-5.60;68.00;;;;;;4337546;32;20082;-61
2021/03/15 04:31:17;;;;;;;4.60;2.80;;;-5.70;69.20;;;;;;4362190;32;20579;-61
2021/03/15 04:33:43;;;;;;;7.32;3.22;;;-5.60;67.90;;;;;;4348114;32;20078;-59
2021/03/15 04:36:10;;;;;;;4.70;2.75;;;-5.60;67.70;;;;;;4360522;32;20512;-59
2021/03/15 04:38:37;;;;;;;3.47;2.50;;;-5.50;67.60;;;;;;4360781;32;20190;-59
2021/03/15 04:41:04;;;;;;;5.82;2.70;;;-5.50;67.50;;;;;;4348333;32;20170;-60
2021/03/15 04:43:31;;;;;;;6.68;2.90;;;-5.40;67.20;;;;;;4347837;32;20070;-59
2021/03/15 04:45:57;;;;;;;4.80;2.83;;;-5.40;67.00;;;;;;4348295;32;20098;-60
2021/03/15 04:48:28;;;;;;;4.70;2.87;;;-5.40;68.00;;;;;;4364918;32;20075;-59
2021/03/15 04:50:59;;;;;;;5.87;3.15;;;-5.40;66.80;;;;;;4349786;32;20094;-59
2021/03/15 04:53:27;;;;;;;5.93;3.33;;;-5.40;66.80;;;;;;4338614;32;20161;-59
2021/03/15 04:56:00;;;;;;;5.22;2.85;;;-5.40;66.80;;;;;;4369449;32;20481;-59
2021/03/15 04:58:26;;;;;;;5.85;3.05;;;-5.40;66.50;;;;;;4335756;32;20453;-59
2021/03/15 05:00:57;;;;;;;5.75;3.47;;;-5.30;66.40;;;;;;4348387;32;20514;-58
2021/03/15 05:03:24;;;;;;;7.47;3.70;;;-5.30;66.10;;;;;;4355634;32;20078;-59
2021/03/15 05:05:52;;;;;;;6.68;3.42;;;-5.20;66.10;;;;;;4376537;32;20517;-59
2021/03/15 05:08:22;;;;;;;7.97;4.68;;;-5.10;65.90;;;;;;4377123;32;20096;-60
2021/03/15 05:10:48;;;;;;;10.85;4.95;;;-5.10;65.60;;;;;;4365451;32;20069;-60
2021/03/15 05:13:14;;;;;;;8.43;4.90;;;-5.10;65.10;;;;;;4376884;32;20058;-60
2021/03/15 05:15:40;;;;;;;8.35;4.93;;;-5.00;65.00;;;;;;4365645;32;20104;-60
2021/03/15 05:18:12;;;;;;;10.40;5.10;;;-4.60;64.40;;;;;;4358306;32;20125;-59
2021/03/15 05:20:38;;;;;;;7.37;4.15;;;-4.30;61.40;;;;;;4362543;32;20063;-59
2021/03/15 05:23:07;;;;;;;7.80;4.87;;;-3.30;59.60;;;;;;4350718;32;20147;-60
2021/03/15 05:25:34;;;;;;;7.97;3.95;;;-3.30;58.80;;;;;;4371198;32;20086;-59
2021/03/15 05:28:01;;;;;;;8.55;3.85;;;-3.20;58.00;;;;;;4338301;32;20085;-59
2021/03/15 05:30:27;;;;;;;6.45;3.80;;;-2.90;57.40;;;;;;4337115;32;20239;-60
2021/03/15 05:32:53;;;;;;;5.70;3.45;;;-2.90;56.80;;;;;;4339017;32;20074;-60
2021/03/15 05:35:20;;;;;;;6.40;3.75;;;-2.70;56.70;;;;;;4349595;32;20063;-61
2021/03/15 05:37:46;;;;;;;5.47;3.12;;;-2.70;55.90;;;;;;4337675;32;20086;-60
2021/03/15 05:40:18;;;;;;;6.28;3.72;;;-2.70;57.00;;;;;;4362269;32;20090;-58
2021/03/15 05:43:14;;;;;;;7.07;3.70;;;-2.50;56.30;;;;;;4350174;32;20082;-62
2021/03/15 05:46:07;;;;;;;6.93;3.67;;;-2.70;56.80;;;;;;4348801;32;20077;-60
2021/03/15 05:48:58;;;;;;;6.57;4.00;;;-2.70;56.60;;;;;;4369716;32;20525;-60
2021/03/15 05:52:06;;;;;;;5.43;3.58;;;-2.90;57.40;;;;;;4372412;32;20102;-60
2021/03/15 05:55:07;;;;;;;;;;;-3.20;58.00;;;;;;4363322;32;20157;-60
2021/03/15 05:58:06;;;;;;;8.75;3.67;;;-3.20;57.60;;;;;;4344675;32;19962;-60
2021/03/15 06:00:56;;;;;;;6.75;3.33;;;-3.40;57.80;;;;;;4359805;32;20508;-60
2021/03/15 06:04:13;;;;;;;5.57;3.33;;;-2.30;56.50;;;;;;4366700;32;20205;-60
2021/03/15 06:06:39;;;;;;;6.03;3.60;;;-1.10;52.70;;;;;;4345145;32;20163;-59
2021/03/15 06:09:06;;;;;;;7.15;2.85;;;-1.90;53.00;;;;;;4355386;32;20069;-60
2021/03/15 06:11:39;;;;;;;6.80;3.67;;;-1.90;53.20;;;;;;4360936;32;20100;-61
2021/03/15 06:14:07;;;;;;;5.57;2.72;;;-0.30;50.80;;;;;;4357658;32;20070;-61
2021/03/15 06:16:33;;;;;;;7.20;3.60;;;-1.00;49.90;;;;;;4355606;32;20495;-60
2021/03/15 06:18:59;;;;;;;4.90;2.53;;;-0.60;48.90;;;;;;4365782;32;20090;-60
2021/03/15 06:21:26;;;;;;;7.05;3.50;;;-1.90;51.50;;;;;;4356606;32;20075;-60
2021/03/15 06:23:52;;;;;;;6.47;3.40;;;-1.60;53.30;;;;;;4355600;32;20078;-61
2021/03/15 06:26:20;;;;;;;6.03;3.40;;;-1.90;53.20;;;;;;4375282;32;20231;-60
2021/03/15 06:28:46;;;;;;;8.07;3.60;;;-2.10;53.20;;;;;;4368245;32;20456;-62
2021/03/15 06:31:12;;;;;;;6.40;3.70;;;-2.00;53.30;;;;;;4373751;32;20585;-60
2021/03/15 06:33:38;;;;;;;6.05;3.15;;;-2.10;55.70;;;;;;4370966;32;20457;-61
2021/03/15 06:36:05;;;;;;;5.80;3.20;;;-2.60;55.50;;;;;;4371708;32;20129;-61
2021/03/15 06:38:32;;;;;;;6.07;3.17;;;-2.60;55.30;;;;;;4350482;32;20079;-61
2021/03/15 06:41:04;;;;;;;8.40;2.97;;;-2.20;55.50;;;;;;4362281;32;20095;-60
2021/03/15 06:43:31;;;;;;;6.15;3.00;;;-2.20;55.80;;;;;;4360862;32;20182;-60
2021/03/15 06:45:57;;;;;;;8.13;3.65;;;-2.20;54.10;;;;;;4373434;32;20093;-62
2021/03/15 06:48:24;;;;;;;9.65;3.28;;;-2.50;55.20;;;;;;4362949;32;20046;-61
2021/03/15 06:50:51;;;;;;;5.07;3.05;;;-2.40;56.60;;;;;;4355534;32;20531;-61
2021/03/15 06:53:17;;;;;;;5.35;3.37;;;-2.60;56.30;;;;;;4366528;32;20520;-61
2021/03/15 06:55:51;;;;;;;5.93;2.70;;;-2.70;57.10;;;;;;4372565;32;20085;-63
2021/03/15 06:58:33;;;;;;;5.00;3.08;;;-2.80;57.40;;;;;;4364416;32;20453;-61
2021/03/15 07:01:26;;;;;;;7.53;3.33;;;-2.50;57.30;;;;;;4345255;32;20067;-60
